Logan, Ohio
Current Conditions -  °F | °C
As of 5:53 PM on Thursday 20 Nov 2014 (Local Time) from KLHQ Reporting Station
Clear Clear  
Wind Chill: 17°   Ceiling: Unl
Heat Index: 25°   Visibility: 10mi
Dew Point: 14°   Wind: 7mph
Humidity: 63%   Direction: 260°W
Pressure: 30.13"   Gusts: NA
Location:  39.54°N, 82.41°W
Report Text: KLHQ 202253Z AUTO 26006KT 10SM CLR M04/M10 A3013 RMK AO2 SLP213 T10391100
Loading
Personal Weather Stations






























Interactive Weather Map New forecast layout! Learn more

10-Day Weather Forecast

Advertisements
Track Severe Weather on mobile